DGO weather

General Guadalupe Victoria International Airport
Durango, Durango, Mexico

Public forecast

Using degrees Celsius for public forecast. Weather courtesy of forecast.io.

Current aviation weather report (METAR) for General Guadalupe Victoria International Airport

Report is more than 2 hours old.

Retrieved 2020/05/29 22:45 UTC (3 hours ago):

MMDO 292245Z 02013KT 14SM BKN025TCU 28/00 A3018 RMK 8/200

Aviation forecast (TAF) for General Guadalupe Victoria International Airport

Forecast is more than 6 hours old.

Retrieved 2020/05/29 18:16 UTC (8 hours ago):

TAF MMDO 291715Z 2918/3018 03015KT P6SM BKN030 FM300000 06015KT P6SM TSRA SCT020CB BKN060 TEMPO 3003/3007 6SM TSRA BKN020CB FM301500 00000KT 4SM HZ SCT010 BKN070